sensor_id;sensor_type;location;lat;lon;timestamp;P1;durP1;ratioP1;P2;durP2;ratioP2
29210;SDS011;16250;49.932;10.980;2023-05-29T00:01:16;5.72;;;3.55;;
29210;SDS011;16250;49.932;10.980;2023-05-29T00:03:46;7.03;;;3.42;;
29210;SDS011;16250;49.932;10.980;2023-05-29T00:06:11;6.25;;;3.53;;
29210;SDS011;16250;49.932;10.980;2023-05-29T00:08:37;4.13;;;2.80;;
29210;SDS011;16250;49.932;10.980;2023-05-29T00:11:02;10.93;;;3.05;;
29210;SDS011;16250;49.932;10.980;2023-05-29T00:13:28;5.60;;;3.15;;
29210;SDS011;16250;49.932;10.980;2023-05-29T00:15:53;5.97;;;3.22;;
29210;SDS011;16250;49.932;10.980;2023-05-29T00:18:19;5.43;;;3.17;;
29210;SDS011;16250;49.932;10.980;2023-05-29T00:20:44;5.20;;;3.20;;
29210;SDS011;16250;49.932;10.980;2023-05-29T00:23:10;7.47;;;3.03;;
29210;SDS011;16250;49.932;10.980;2023-05-29T00:25:35;5.47;;;2.78;;
29210;SDS011;16250;49.932;10.980;2023-05-29T00:28:01;6.38;;;3.20;;
29210;SDS011;16250;49.932;10.980;2023-05-29T00:30:26;6.07;;;2.65;;
29210;SDS011;16250;49.932;10.980;2023-05-29T00:32:52;7.20;;;3.10;;
29210;SDS011;16250;49.932;10.980;2023-05-29T00:35:18;6.65;;;3.50;;
29210;SDS011;16250;49.932;10.980;2023-05-29T00:37:43;4.72;;;2.80;;
29210;SDS011;16250;49.932;10.980;2023-05-29T00:40:09;4.97;;;2.65;;
29210;SDS011;16250;49.932;10.980;2023-05-29T00:42:35;5.53;;;3.35;;
29210;SDS011;16250;49.932;10.980;2023-05-29T00:45:00;4.35;;;2.70;;
29210;SDS011;16250;49.932;10.980;2023-05-29T00:47:26;5.03;;;3.10;;
29210;SDS011;16250;49.932;10.980;2023-05-29T00:49:53;4.47;;;3.08;;
29210;SDS011;16250;49.932;10.980;2023-05-29T00:52:18;5.63;;;2.85;;
29210;SDS011;16250;49.932;10.980;2023-05-29T00:54:45;6.90;;;3.20;;
29210;SDS011;16250;49.932;10.980;2023-05-29T00:57:11;5.10;;;3.17;;
29210;SDS011;16250;49.932;10.980;2023-05-29T00:59:37;7.20;;;3.25;;
29210;SDS011;16250;49.932;10.980;2023-05-29T01:02:03;4.57;;;3.38;;
29210;SDS011;16250;49.932;10.980;2023-05-29T01:04:28;5.88;;;3.30;;
29210;SDS011;16250;49.932;10.980;2023-05-29T01:06:54;4.85;;;3.25;;
29210;SDS011;16250;49.932;10.980;2023-05-29T01:09:20;6.93;;;3.60;;
29210;SDS011;16250;49.932;10.980;2023-05-29T01:11:55;5.68;;;3.38;;
29210;SDS011;16250;49.932;10.980;2023-05-29T01:17:28;7.55;;;3.33;;
29210;SDS011;16250;49.932;10.980;2023-05-29T01:20:09;6.78;;;3.13;;
29210;SDS011;16250;49.932;10.980;2023-05-29T01:25:31;10.63;;;3.55;;
29210;SDS011;16250;49.932;10.980;2023-05-29T01:28:05;4.55;;;2.80;;
29210;SDS011;16250;49.932;10.980;2023-05-29T01:30:32;8.10;;;3.63;;
29210;SDS011;16250;49.932;10.980;2023-05-29T01:32:58;4.75;;;3.30;;
29210;SDS011;16250;49.932;10.980;2023-05-29T01:35:24;6.57;;;3.70;;
29210;SDS011;16250;49.932;10.980;2023-05-29T01:37:53;5.50;;;3.55;;
29210;SDS011;16250;49.932;10.980;2023-05-29T01:40:20;5.93;;;3.05;;
29210;SDS011;16250;49.932;10.980;2023-05-29T01:42:46;5.43;;;3.13;;
29210;SDS011;16250;49.932;10.980;2023-05-29T01:45:12;6.38;;;3.35;;
29210;SDS011;16250;49.932;10.980;2023-05-29T01:47:38;4.95;;;3.55;;
29210;SDS011;16250;49.932;10.980;2023-05-29T01:50:04;4.78;;;3.42;;
29210;SDS011;16250;49.932;10.980;2023-05-29T01:52:30;4.70;;;3.47;;
29210;SDS011;16250;49.932;10.980;2023-05-29T01:54:56;6.03;;;3.53;;
29210;SDS011;16250;49.932;10.980;2023-05-29T01:57:21;5.25;;;3.60;;
29210;SDS011;16250;49.932;10.980;2023-05-29T01:59:47;5.43;;;3.80;;
29210;SDS011;16250;49.932;10.980;2023-05-29T02:02:13;7.28;;;3.60;;
29210;SDS011;16250;49.932;10.980;2023-05-29T02:04:38;4.55;;;3.30;;
29210;SDS011;16250;49.932;10.980;2023-05-29T02:07:03;6.20;;;3.58;;
29210;SDS011;16250;49.932;10.980;2023-05-29T02:09:29;6.25;;;3.50;;
29210;SDS011;16250;49.932;10.980;2023-05-29T02:11:56;6.32;;;3.95;;
29210;SDS011;16250;49.932;10.980;2023-05-29T02:14:21;3.85;;;3.25;;
29210;SDS011;16250;49.932;10.980;2023-05-29T02:16:51;6.28;;;3.47;;
29210;SDS011;16250;49.932;10.980;2023-05-29T02:19:19;4.65;;;3.30;;
29210;SDS011;16250;49.932;10.980;2023-05-29T02:21:46;5.20;;;3.05;;
29210;SDS011;16250;49.932;10.980;2023-05-29T02:24:12;4.20;;;3.03;;
29210;SDS011;16250;49.932;10.980;2023-05-29T02:26:39;4.47;;;3.30;;
29210;SDS011;16250;49.932;10.980;2023-05-29T02:29:05;4.97;;;3.42;;
29210;SDS011;16250;49.932;10.980;2023-05-29T02:31:30;5.68;;;3.78;;
29210;SDS011;16250;49.932;10.980;2023-05-29T02:33:56;6.22;;;3.72;;
29210;SDS011;16250;49.932;10.980;2023-05-29T02:36:21;6.10;;;3.75;;
29210;SDS011;16250;49.932;10.980;2023-05-29T02:38:47;6.35;;;3.42;;
29210;SDS011;16250;49.932;10.980;2023-05-29T02:41:12;7.80;;;3.58;;
29210;SDS011;16250;49.932;10.980;2023-05-29T02:43:38;5.00;;;3.40;;
29210;SDS011;16250;49.932;10.980;2023-05-29T02:46:03;6.25;;;4.10;;
29210;SDS011;16250;49.932;10.980;2023-05-29T02:48:28;7.35;;;3.72;;
29210;SDS011;16250;49.932;10.980;2023-05-29T02:50:54;6.85;;;3.70;;
29210;SDS011;16250;49.932;10.980;2023-05-29T02:53:19;4.20;;;3.78;;
29210;SDS011;16250;49.932;10.980;2023-05-29T02:55:45;5.22;;;3.50;;
29210;SDS011;16250;49.932;10.980;2023-05-29T02:58:11;5.05;;;3.78;;
29210;SDS011;16250;49.932;10.980;2023-05-29T03:00:37;5.65;;;3.70;;
29210;SDS011;16250;49.932;10.980;2023-05-29T03:03:03;5.82;;;3.85;;
29210;SDS011;16250;49.932;10.980;2023-05-29T03:05:29;8.70;;;3.75;;
29210;SDS011;16250;49.932;10.980;2023-05-29T03:07:57;4.93;;;3.38;;
29210;SDS011;16250;49.932;10.980;2023-05-29T03:10:22;4.13;;;3.30;;
29210;SDS011;16250;49.932;10.980;2023-05-29T03:12:48;6.05;;;3.55;;
29210;SDS011;16250;49.932;10.980;2023-05-29T03:15:13;5.68;;;3.63;;
29210;SDS011;16250;49.932;10.980;2023-05-29T03:17:39;6.75;;;3.97;;
29210;SDS011;16250;49.932;10.980;2023-05-29T03:20:10;6.35;;;3.78;;
29210;SDS011;16250;49.932;10.980;2023-05-29T03:22:36;5.38;;;3.58;;
29210;SDS011;16250;49.932;10.980;2023-05-29T03:25:05;6.07;;;3.78;;
29210;SDS011;16250;49.932;10.980;2023-05-29T03:27:32;5.45;;;3.90;;
29210;SDS011;16250;49.932;10.980;2023-05-29T03:30:05;4.38;;;3.65;;
29210;SDS011;16250;49.932;10.980;2023-05-29T03:32:32;5.32;;;3.38;;
29210;SDS011;16250;49.932;10.980;2023-05-29T03:34:58;4.53;;;3.80;;
29210;SDS011;16250;49.932;10.980;2023-05-29T03:37:23;5.38;;;3.95;;
29210;SDS011;16250;49.932;10.980;2023-05-29T03:39:49;5.97;;;4.05;;
29210;SDS011;16250;49.932;10.980;2023-05-29T03:42:15;4.82;;;3.92;;
29210;SDS011;16250;49.932;10.980;2023-05-29T03:44:41;7.53;;;4.25;;
29210;SDS011;16250;49.932;10.980;2023-05-29T03:47:09;6.68;;;4.20;;
29210;SDS011;16250;49.932;10.980;2023-05-29T03:49:35;5.47;;;3.90;;
29210;SDS011;16250;49.932;10.980;2023-05-29T03:52:01;5.93;;;4.30;;
29210;SDS011;16250;49.932;10.980;2023-05-29T03:54:28;5.30;;;3.88;;
29210;SDS011;16250;49.932;10.980;2023-05-29T03:56:53;5.85;;;3.72;;
29210;SDS011;16250;49.932;10.980;2023-05-29T03:59:19;5.70;;;4.10;;
29210;SDS011;16250;49.932;10.980;2023-05-29T04:01:46;6.80;;;4.20;;
29210;SDS011;16250;49.932;10.980;2023-05-29T04:04:12;6.18;;;3.70;;
29210;SDS011;16250;49.932;10.980;2023-05-29T04:06:38;7.15;;;4.05;;
29210;SDS011;16250;49.932;10.980;2023-05-29T04:09:06;5.43;;;4.25;;
29210;SDS011;16250;49.932;10.980;2023-05-29T04:11:33;6.07;;;3.95;;
29210;SDS011;16250;49.932;10.980;2023-05-29T04:14:01;5.35;;;4.10;;
29210;SDS011;16250;49.932;10.980;2023-05-29T04:16:27;4.97;;;4.05;;
29210;SDS011;16250;49.932;10.980;2023-05-29T04:18:53;5.32;;;3.85;;
29210;SDS011;16250;49.932;10.980;2023-05-29T04:21:22;7.38;;;4.18;;
29210;SDS011;16250;49.932;10.980;2023-05-29T04:23:47;5.88;;;3.90;;
29210;SDS011;16250;49.932;10.980;2023-05-29T04:26:13;7.65;;;4.28;;
29210;SDS011;16250;49.932;10.980;2023-05-29T04:28:41;4.85;;;3.70;;
29210;SDS011;16250;49.932;10.980;2023-05-29T04:31:07;5.10;;;3.90;;
29210;SDS011;16250;49.932;10.980;2023-05-29T04:33:34;5.68;;;3.92;;
29210;SDS011;16250;49.932;10.980;2023-05-29T04:36:02;6.13;;;4.20;;
29210;SDS011;16250;49.932;10.980;2023-05-29T04:38:29;4.40;;;3.67;;
29210;SDS011;16250;49.932;10.980;2023-05-29T04:40:56;6.47;;;3.70;;
29210;SDS011;16250;49.932;10.980;2023-05-29T04:43:23;7.22;;;4.18;;
29210;SDS011;16250;49.932;10.980;2023-05-29T04:46:09;6.83;;;3.70;;
29210;SDS011;16250;49.932;10.980;2023-05-29T04:48:38;7.03;;;4.22;;
29210;SDS011;16250;49.932;10.980;2023-05-29T04:51:07;5.50;;;4.05;;
29210;SDS011;16250;49.932;10.980;2023-05-29T04:53:36;8.10;;;4.05;;
29210;SDS011;16250;49.932;10.980;2023-05-29T04:56:06;6.85;;;4.57;;
29210;SDS011;16250;49.932;10.980;2023-05-29T04:58:33;5.05;;;3.90;;
29210;SDS011;16250;49.932;10.980;2023-05-29T05:00:58;4.57;;;3.95;;
29210;SDS011;16250;49.932;10.980;2023-05-29T05:03:27;5.40;;;4.18;;
29210;SDS011;16250;49.932;10.980;2023-05-29T05:05:54;9.05;;;3.97;;
29210;SDS011;16250;49.932;10.980;2023-05-29T05:08:20;5.63;;;4.25;;
29210;SDS011;16250;49.932;10.980;2023-05-29T05:10:45;6.60;;;4.10;;
29210;SDS011;16250;49.932;10.980;2023-05-29T05:13:11;5.90;;;4.38;;
29210;SDS011;16250;49.932;10.980;2023-05-29T05:15:37;5.50;;;3.90;;
29210;SDS011;16250;49.932;10.980;2023-05-29T05:18:03;6.70;;;4.03;;
29210;SDS011;16250;49.932;10.980;2023-05-29T05:20:31;5.07;;;3.80;;
29210;SDS011;16250;49.932;10.980;2023-05-29T05:22:58;5.68;;;4.20;;
29210;SDS011;16250;49.932;10.980;2023-05-29T05:25:25;6.18;;;4.10;;
29210;SDS011;16250;49.932;10.980;2023-05-29T05:27:50;5.57;;;3.85;;
29210;SDS011;16250;49.932;10.980;2023-05-29T05:30:17;8.05;;;4.00;;
29210;SDS011;16250;49.932;10.980;2023-05-29T05:32:42;7.03;;;4.00;;
29210;SDS011;16250;49.932;10.980;2023-05-29T05:35:09;6.03;;;4.03;;
29210;SDS011;16250;49.932;10.980;2023-05-29T05:37:36;6.30;;;3.63;;
29210;SDS011;16250;49.932;10.980;2023-05-29T05:40:03;5.50;;;3.83;;
29210;SDS011;16250;49.932;10.980;2023-05-29T05:42:31;5.75;;;3.58;;
29210;SDS011;16250;49.932;10.980;2023-05-29T05:45:02;5.75;;;3.72;;
29210;SDS011;16250;49.932;10.980;2023-05-29T05:47:28;5.78;;;4.00;;
29210;SDS011;16250;49.932;10.980;2023-05-29T05:49:54;5.85;;;3.80;;
29210;SDS011;16250;49.932;10.980;2023-05-29T05:52:19;5.38;;;3.90;;
29210;SDS011;16250;49.932;10.980;2023-05-29T05:54:45;6.28;;;3.88;;
29210;SDS011;16250;49.932;10.980;2023-05-29T05:57:12;5.38;;;3.78;;
29210;SDS011;16250;49.932;10.980;2023-05-29T05:59:38;5.10;;;4.05;;
29210;SDS011;16250;49.932;10.980;2023-05-29T06:02:04;6.10;;;4.07;;
29210;SDS011;16250;49.932;10.980;2023-05-29T06:04:30;5.35;;;4.30;;
29210;SDS011;16250;49.932;10.980;2023-05-29T06:06:55;8.48;;;4.28;;
29210;SDS011;16250;49.932;10.980;2023-05-29T06:09:21;7.32;;;4.07;;
29210;SDS011;16250;49.932;10.980;2023-05-29T06:11:47;4.82;;;3.83;;
29210;SDS011;16250;49.932;10.980;2023-05-29T06:14:15;7.80;;;4.22;;
29210;SDS011;16250;49.932;10.980;2023-05-29T06:16:42;5.03;;;3.58;;
29210;SDS011;16250;49.932;10.980;2023-05-29T06:19:08;4.78;;;3.50;;
29210;SDS011;16250;49.932;10.980;2023-05-29T06:21:46;5.45;;;3.80;;
29210;SDS011;16250;49.932;10.980;2023-05-29T06:24:12;5.50;;;3.45;;
29210;SDS011;16250;49.932;10.980;2023-05-29T06:26:37;7.32;;;3.97;;
29210;SDS011;16250;49.932;10.980;2023-05-29T06:29:06;6.82;;;3.90;;
29210;SDS011;16250;49.932;10.980;2023-05-29T06:31:31;8.68;;;4.13;;
29210;SDS011;16250;49.932;10.980;2023-05-29T06:33:58;5.32;;;3.80;;
29210;SDS011;16250;49.932;10.980;2023-05-29T06:36:24;7.07;;;4.10;;
29210;SDS011;16250;49.932;10.980;2023-05-29T06:38:50;6.30;;;3.85;;
29210;SDS011;16250;49.932;10.980;2023-05-29T06:41:16;6.65;;;3.75;;
29210;SDS011;16250;49.932;10.980;2023-05-29T06:43:42;6.28;;;3.83;;
29210;SDS011;16250;49.932;10.980;2023-05-29T06:46:07;8.30;;;3.92;;
29210;SDS011;16250;49.932;10.980;2023-05-29T06:48:33;7.85;;;3.90;;
29210;SDS011;16250;49.932;10.980;2023-05-29T06:50:59;7.00;;;3.90;;
29210;SDS011;16250;49.932;10.980;2023-05-29T06:53:40;4.95;;;3.47;;
29210;SDS011;16250;49.932;10.980;2023-05-29T06:56:08;4.85;;;3.55;;
29210;SDS011;16250;49.932;10.980;2023-05-29T06:58:33;5.97;;;3.72;;
29210;SDS011;16250;49.932;10.980;2023-05-29T07:00:59;7.63;;;4.03;;
29210;SDS011;16250;49.932;10.980;2023-05-29T07:03:31;5.47;;;3.75;;
29210;SDS011;16250;49.932;10.980;2023-05-29T07:05:57;6.38;;;3.70;;
29210;SDS011;16250;49.932;10.980;2023-05-29T07:08:24;8.73;;;3.75;;
29210;SDS011;16250;49.932;10.980;2023-05-29T07:10:51;8.18;;;3.30;;
29210;SDS011;16250;49.932;10.980;2023-05-29T07:13:19;6.10;;;3.60;;
29210;SDS011;16250;49.932;10.980;2023-05-29T07:15:44;6.95;;;3.60;;
29210;SDS011;16250;49.932;10.980;2023-05-29T07:18:11;6.30;;;3.90;;
29210;SDS011;16250;49.932;10.980;2023-05-29T07:20:37;5.50;;;3.55;;
29210;SDS011;16250;49.932;10.980;2023-05-29T07:23:03;6.15;;;3.65;;
29210;SDS011;16250;49.932;10.980;2023-05-29T07:25:29;5.60;;;3.53;;
29210;SDS011;16250;49.932;10.980;2023-05-29T07:27:54;6.30;;;3.30;;
29210;SDS011;16250;49.932;10.980;2023-05-29T07:30:20;5.70;;;3.38;;
29210;SDS011;16250;49.932;10.980;2023-05-29T07:32:47;5.55;;;3.15;;
29210;SDS011;16250;49.932;10.980;2023-05-29T07:35:12;5.95;;;3.58;;
29210;SDS011;16250;49.932;10.980;2023-05-29T07:37:38;5.72;;;3.47;;
29210;SDS011;16250;49.932;10.980;2023-05-29T07:40:04;6.90;;;3.45;;
29210;SDS011;16250;49.932;10.980;2023-05-29T07:42:51;8.38;;;3.45;;
29210;SDS011;16250;49.932;10.980;2023-05-29T07:45:17;4.72;;;3.17;;
29210;SDS011;16250;49.932;10.980;2023-05-29T07:47:42;6.13;;;3.10;;
29210;SDS011;16250;49.932;10.980;2023-05-29T07:50:09;4.65;;;3.20;;
29210;SDS011;16250;49.932;10.980;2023-05-29T07:52:35;5.22;;;3.47;;
29210;SDS011;16250;49.932;10.980;2023-05-29T07:55:01;5.50;;;3.20;;
29210;SDS011;16250;49.932;10.980;2023-05-29T07:57:27;7.05;;;3.65;;
29210;SDS011;16250;49.932;10.980;2023-05-29T07:59:55;3.95;;;3.20;;
29210;SDS011;16250;49.932;10.980;2023-05-29T08:02:21;5.88;;;3.38;;
29210;SDS011;16250;49.932;10.980;2023-05-29T08:05:04;4.70;;;3.30;;
29210;SDS011;16250;49.932;10.980;2023-05-29T08:07:33;4.10;;;2.92;;
29210;SDS011;16250;49.932;10.980;2023-05-29T08:09:58;4.97;;;3.15;;
29210;SDS011;16250;49.932;10.980;2023-05-29T08:12:24;4.18;;;2.88;;
29210;SDS011;16250;49.932;10.980;2023-05-29T08:14:52;5.63;;;3.42;;
29210;SDS011;16250;49.932;10.980;2023-05-29T08:17:18;6.10;;;3.40;;
29210;SDS011;16250;49.932;10.980;2023-05-29T08:19:43;4.70;;;3.15;;
29210;SDS011;16250;49.932;10.980;2023-05-29T08:22:11;7.03;;;3.40;;
29210;SDS011;16250;49.932;10.980;2023-05-29T08:24:37;6.85;;;3.40;;
29210;SDS011;16250;49.932;10.980;2023-05-29T08:27:03;6.05;;;3.50;;
29210;SDS011;16250;49.932;10.980;2023-05-29T08:29:28;3.97;;;3.10;;
29210;SDS011;16250;49.932;10.980;2023-05-29T08:31:54;5.05;;;3.20;;
29210;SDS011;16250;49.932;10.980;2023-05-29T08:34:19;6.03;;;3.28;;
29210;SDS011;16250;49.932;10.980;2023-05-29T08:39:20;5.90;;;3.80;;
29210;SDS011;16250;49.932;10.980;2023-05-29T08:42:01;6.32;;;3.90;;
29210;SDS011;16250;49.932;10.980;2023-05-29T08:44:32;5.63;;;3.28;;
29210;SDS011;16250;49.932;10.980;2023-05-29T08:49:42;6.50;;;3.35;;
29210;SDS011;16250;49.932;10.980;2023-05-29T08:52:22;4.40;;;3.22;;
29210;SDS011;16250;49.932;10.980;2023-05-29T08:54:50;5.35;;;3.35;;
29210;SDS011;16250;49.932;10.980;2023-05-29T08:57:16;3.90;;;3.13;;
29210;SDS011;16250;49.932;10.980;2023-05-29T08:59:42;7.05;;;3.65;;
29210;SDS011;16250;49.932;10.980;2023-05-29T09:02:10;7.25;;;3.50;;
29210;SDS011;16250;49.932;10.980;2023-05-29T09:04:36;5.13;;;3.85;;
29210;SDS011;16250;49.932;10.980;2023-05-29T09:07:02;5.63;;;3.83;;
29210;SDS011;16250;49.932;10.980;2023-05-29T09:09:28;6.18;;;4.07;;
29210;SDS011;16250;49.932;10.980;2023-05-29T09:11:54;6.25;;;3.50;;
29210;SDS011;16250;49.932;10.980;2023-05-29T09:14:31;7.60;;;3.38;;
29210;SDS011;16250;49.932;10.980;2023-05-29T09:16:58;8.93;;;3.72;;
29210;SDS011;16250;49.932;10.980;2023-05-29T09:19:25;6.18;;;3.28;;
29210;SDS011;16250;49.932;10.980;2023-05-29T09:21:50;4.38;;;3.38;;
29210;SDS011;16250;49.932;10.980;2023-05-29T09:24:16;6.82;;;3.35;;
29210;SDS011;16250;49.932;10.980;2023-05-29T09:26:51;5.68;;;3.75;;
29210;SDS011;16250;49.932;10.980;2023-05-29T09:29:16;6.68;;;3.72;;
29210;SDS011;16250;49.932;10.980;2023-05-29T09:31:45;6.55;;;3.63;;
29210;SDS011;16250;49.932;10.980;2023-05-29T09:34:11;5.57;;;4.18;;
29210;SDS011;16250;49.932;10.980;2023-05-29T09:36:37;8.48;;;4.22;;
29210;SDS011;16250;49.932;10.980;2023-05-29T09:39:03;6.60;;;3.90;;
29210;SDS011;16250;49.932;10.980;2023-05-29T09:41:29;5.03;;;3.50;;
29210;SDS011;16250;49.932;10.980;2023-05-29T09:43:56;9.15;;;4.00;;
29210;SDS011;16250;49.932;10.980;2023-05-29T09:46:22;5.82;;;3.47;;
29210;SDS011;16250;49.932;10.980;2023-05-29T09:48:47;4.88;;;3.85;;
29210;SDS011;16250;49.932;10.980;2023-05-29T09:51:20;5.28;;;3.35;;
29210;SDS011;16250;49.932;10.980;2023-05-29T09:53:47;5.78;;;3.63;;
29210;SDS011;16250;49.932;10.980;2023-05-29T09:56:13;6.88;;;4.00;;
29210;SDS011;16250;49.932;10.980;2023-05-29T09:58:42;4.25;;;3.28;;
29210;SDS011;16250;49.932;10.980;2023-05-29T10:01:11;6.10;;;3.50;;
29210;SDS011;16250;49.932;10.980;2023-05-29T10:03:37;4.72;;;3.53;;
29210;SDS011;16250;49.932;10.980;2023-05-29T10:06:03;6.07;;;3.63;;
29210;SDS011;16250;49.932;10.980;2023-05-29T10:08:30;7.10;;;3.65;;
29210;SDS011;16250;49.932;10.980;2023-05-29T10:10:59;5.80;;;3.88;;
29210;SDS011;16250;49.932;10.980;2023-05-29T10:13:36;5.35;;;3.58;;
29210;SDS011;16250;49.932;10.980;2023-05-29T10:16:04;5.45;;;3.17;;
29210;SDS011;16250;49.932;10.980;2023-05-29T10:18:39;3.90;;;3.20;;
29210;SDS011;16250;49.932;10.980;2023-05-29T10:21:08;5.15;;;3.40;;
29210;SDS011;16250;49.932;10.980;2023-05-29T10:23:37;6.40;;;3.33;;
29210;SDS011;16250;49.932;10.980;2023-05-29T10:26:21;4.53;;;3.58;;
29210;SDS011;16250;49.932;10.980;2023-05-29T10:28:55;3.17;;;2.85;;
29210;SDS011;16250;49.932;10.980;2023-05-29T10:31:30;6.15;;;3.22;;
29210;SDS011;16250;49.932;10.980;2023-05-29T10:34:02;6.05;;;3.53;;
29210;SDS011;16250;49.932;10.980;2023-05-29T10:36:38;7.97;;;3.17;;
29210;SDS011;16250;49.932;10.980;2023-05-29T10:39:08;4.03;;;3.40;;
29210;SDS011;16250;49.932;10.980;2023-05-29T10:41:33;4.60;;;3.22;;
29210;SDS011;16250;49.932;10.980;2023-05-29T10:44:04;5.55;;;3.40;;
29210;SDS011;16250;49.932;10.980;2023-05-29T10:49:22;5.07;;;3.20;;
29210;SDS011;16250;49.932;10.980;2023-05-29T10:51:48;4.20;;;3.08;;
29210;SDS011;16250;49.932;10.980;2023-05-29T10:54:14;6.97;;;3.33;;
29210;SDS011;16250;49.932;10.980;2023-05-29T10:56:40;4.38;;;3.13;;
29210;SDS011;16250;49.932;10.980;2023-05-29T10:59:07;6.75;;;3.42;;
29210;SDS011;16250;49.932;10.980;2023-05-29T11:01:33;4.18;;;3.42;;
29210;SDS011;16250;49.932;10.980;2023-05-29T11:06:42;6.25;;;3.35;;
29210;SDS011;16250;49.932;10.980;2023-05-29T11:14:53;6.20;;;3.53;;
29210;SDS011;16250;49.932;10.980;2023-05-29T11:20:00;4.25;;;3.40;;
29210;SDS011;16250;49.932;10.980;2023-05-29T11:22:30;4.70;;;3.20;;
29210;SDS011;16250;49.932;10.980;2023-05-29T11:25:05;4.90;;;3.30;;
29210;SDS011;16250;49.932;10.980;2023-05-29T11:27:32;6.03;;;3.25;;
29210;SDS011;16250;49.932;10.980;2023-05-29T11:29:57;3.70;;;2.67;;
29210;SDS011;16250;49.932;10.980;2023-05-29T11:32:23;7.35;;;2.92;;
29210;SDS011;16250;49.932;10.980;2023-05-29T11:34:52;4.22;;;3.30;;
29210;SDS011;16250;49.932;10.980;2023-05-29T11:37:21;5.10;;;3.55;;
29210;SDS011;16250;49.932;10.980;2023-05-29T11:39:47;4.63;;;3.30;;
29210;SDS011;16250;49.932;10.980;2023-05-29T11:42:12;7.05;;;3.25;;
29210;SDS011;16250;49.932;10.980;2023-05-29T11:44:37;5.65;;;3.10;;
29210;SDS011;16250;49.932;10.980;2023-05-29T11:47:03;6.60;;;3.40;;
29210;SDS011;16250;49.932;10.980;2023-05-29T11:49:30;6.00;;;3.67;;
29210;SDS011;16250;49.932;10.980;2023-05-29T11:52:11;4.57;;;3.22;;
29210;SDS011;16250;49.932;10.980;2023-05-29T11:54:39;5.97;;;3.53;;
29210;SDS011;16250;49.932;10.980;2023-05-29T11:57:06;5.25;;;3.28;;
29210;SDS011;16250;49.932;10.980;2023-05-29T11:59:32;3.65;;;3.20;;
29210;SDS011;16250;49.932;10.980;2023-05-29T12:01:58;7.32;;;3.30;;
29210;SDS011;16250;49.932;10.980;2023-05-29T12:04:24;5.15;;;3.35;;
29210;SDS011;16250;49.932;10.980;2023-05-29T12:06:49;7.18;;;3.47;;
29210;SDS011;16250;49.932;10.980;2023-05-29T12:09:28;6.50;;;3.53;;
29210;SDS011;16250;49.932;10.980;2023-05-29T12:11:54;4.85;;;3.55;;
29210;SDS011;16250;49.932;10.980;2023-05-29T12:14:28;6.23;;;3.23;;
29210;SDS011;16250;49.932;10.980;2023-05-29T12:16:54;4.95;;;3.15;;
29210;SDS011;16250;49.932;10.980;2023-05-29T12:19:19;4.78;;;3.17;;
29210;SDS011;16250;49.932;10.980;2023-05-29T12:21:45;4.22;;;2.95;;
29210;SDS011;16250;49.932;10.980;2023-05-29T12:24:10;5.60;;;3.22;;
29210;SDS011;16250;49.932;10.980;2023-05-29T12:26:36;6.15;;;3.60;;
29210;SDS011;16250;49.932;10.980;2023-05-29T12:29:02;6.00;;;4.00;;
29210;SDS011;16250;49.932;10.980;2023-05-29T12:31:29;6.15;;;3.28;;
29210;SDS011;16250;49.932;10.980;2023-05-29T12:34:00;4.15;;;3.03;;
29210;SDS011;16250;49.932;10.980;2023-05-29T12:36:35;4.60;;;2.90;;
29210;SDS011;16250;49.932;10.980;2023-05-29T12:39:04;7.70;;;3.35;;
29210;SDS011;16250;49.932;10.980;2023-05-29T12:41:33;5.97;;;3.67;;
29210;SDS011;16250;49.932;10.980;2023-05-29T12:44:01;6.20;;;3.17;;
29210;SDS011;16250;49.932;10.980;2023-05-29T12:46:27;5.28;;;3.58;;
29210;SDS011;16250;49.932;10.980;2023-05-29T12:48:56;4.57;;;2.97;;
29210;SDS011;16250;49.932;10.980;2023-05-29T12:51:25;5.10;;;3.40;;
29210;SDS011;16250;49.932;10.980;2023-05-29T12:53:51;4.18;;;3.38;;
29210;SDS011;16250;49.932;10.980;2023-05-29T12:56:19;5.32;;;3.15;;
29210;SDS011;16250;49.932;10.980;2023-05-29T12:58:47;7.45;;;3.33;;
29210;SDS011;16250;49.932;10.980;2023-05-29T13:01:13;5.80;;;3.75;;
29210;SDS011;16250;49.932;10.980;2023-05-29T13:03:40;5.30;;;3.38;;
29210;SDS011;16250;49.932;10.980;2023-05-29T13:06:05;6.40;;;3.20;;
29210;SDS011;16250;49.932;10.980;2023-05-29T13:08:31;5.35;;;3.40;;
29210;SDS011;16250;49.932;10.980;2023-05-29T13:10:56;3.88;;;2.90;;
29210;SDS011;16250;49.932;10.980;2023-05-29T13:13:22;4.72;;;3.33;;
29210;SDS011;16250;49.932;10.980;2023-05-29T13:15:47;3.47;;;3.17;;
29210;SDS011;16250;49.932;10.980;2023-05-29T13:18:12;5.18;;;3.05;;
29210;SDS011;16250;49.932;10.980;2023-05-29T13:20:38;4.50;;;3.53;;
29210;SDS011;16250;49.932;10.980;2023-05-29T13:23:03;7.22;;;3.90;;
29210;SDS011;16250;49.932;10.980;2023-05-29T13:25:28;5.57;;;3.85;;
29210;SDS011;16250;49.932;10.980;2023-05-29T13:27:54;5.68;;;3.53;;
29210;SDS011;16250;49.932;10.980;2023-05-29T13:30:20;5.50;;;3.17;;
29210;SDS011;16250;49.932;10.980;2023-05-29T13:32:47;5.47;;;3.30;;
29210;SDS011;16250;49.932;10.980;2023-05-29T13:35:12;6.90;;;3.17;;
29210;SDS011;16250;49.932;10.980;2023-05-29T13:37:38;5.03;;;3.33;;
29210;SDS011;16250;49.932;10.980;2023-05-29T13:40:04;4.82;;;3.40;;
29210;SDS011;16250;49.932;10.980;2023-05-29T13:42:30;4.90;;;3.13;;
29210;SDS011;16250;49.932;10.980;2023-05-29T13:44:56;5.82;;;3.50;;
29210;SDS011;16250;49.932;10.980;2023-05-29T13:47:21;4.72;;;3.60;;
29210;SDS011;16250;49.932;10.980;2023-05-29T13:49:47;5.30;;;3.78;;
29210;SDS011;16250;49.932;10.980;2023-05-29T13:52:12;5.40;;;3.28;;
29210;SDS011;16250;49.932;10.980;2023-05-29T13:54:38;5.65;;;3.40;;
29210;SDS011;16250;49.932;10.980;2023-05-29T13:57:04;4.88;;;3.60;;
29210;SDS011;16250;49.932;10.980;2023-05-29T13:59:31;5.53;;;3.55;;
29210;SDS011;16250;49.932;10.980;2023-05-29T14:01:59;4.65;;;3.63;;
29210;SDS011;16250;49.932;10.980;2023-05-29T14:04:24;4.22;;;3.45;;
29210;SDS011;16250;49.932;10.980;2023-05-29T14:06:50;6.07;;;3.78;;
29210;SDS011;16250;49.932;10.980;2023-05-29T14:09:16;5.50;;;3.72;;
29210;SDS011;16250;49.932;10.980;2023-05-29T14:11:42;5.18;;;3.58;;
29210;SDS011;16250;49.932;10.980;2023-05-29T14:14:07;6.55;;;3.50;;
29210;SDS011;16250;49.932;10.980;2023-05-29T14:16:33;4.88;;;3.20;;
29210;SDS011;16250;49.932;10.980;2023-05-29T14:18:59;5.03;;;3.25;;
29210;SDS011;16250;49.932;10.980;2023-05-29T14:21:24;8.25;;;3.90;;
29210;SDS011;16250;49.932;10.980;2023-05-29T14:23:50;7.40;;;3.70;;
29210;SDS011;16250;49.932;10.980;2023-05-29T14:26:15;6.63;;;3.28;;
29210;SDS011;16250;49.932;10.980;2023-05-29T14:28:41;5.43;;;3.30;;
29210;SDS011;16250;49.932;10.980;2023-05-29T14:31:06;4.65;;;3.60;;
29210;SDS011;16250;49.932;10.980;2023-05-29T14:33:32;3.83;;;3.42;;
29210;SDS011;16250;49.932;10.980;2023-05-29T14:35:57;6.80;;;3.75;;
29210;SDS011;16250;49.932;10.980;2023-05-29T14:38:23;5.20;;;3.25;;
29210;SDS011;16250;49.932;10.980;2023-05-29T14:40:49;3.97;;;3.35;;
29210;SDS011;16250;49.932;10.980;2023-05-29T14:43:14;4.50;;;3.30;;
29210;SDS011;16250;49.932;10.980;2023-05-29T14:45:40;4.90;;;3.53;;
29210;SDS011;16250;49.932;10.980;2023-05-29T14:48:05;4.80;;;3.40;;
29210;SDS011;16250;49.932;10.980;2023-05-29T14:50:31;4.53;;;3.38;;
29210;SDS011;16250;49.932;10.980;2023-05-29T14:52:56;4.25;;;3.25;;
29210;SDS011;16250;49.932;10.980;2023-05-29T14:55:22;3.92;;;3.40;;
29210;SDS011;16250;49.932;10.980;2023-05-29T14:57:47;4.72;;;3.10;;